sensor_id;sensor_type;location;lat;lon;timestamp;P1;durP1;ratioP1;P2;durP2;ratioP2
18520;SDS011;9390;51.244;6.982;2023-02-12T00:01:30;175.23;;;47.80;;
18520;SDS011;9390;51.244;6.982;2023-02-12T00:04:01;179.85;;;48.00;;
18520;SDS011;9390;51.244;6.982;2023-02-12T00:06:33;190.57;;;49.40;;
18520;SDS011;9390;51.244;6.982;2023-02-12T00:09:05;158.90;;;46.55;;
18520;SDS011;9390;51.244;6.982;2023-02-12T00:11:37;182.85;;;46.33;;
18520;SDS011;9390;51.244;6.982;2023-02-12T00:14:09;177.13;;;46.92;;
18520;SDS011;9390;51.244;6.982;2023-02-12T00:16:40;181.57;;;46.85;;
18520;SDS011;9390;51.244;6.982;2023-02-12T00:19:12;176.13;;;46.53;;
18520;SDS011;9390;51.244;6.982;2023-02-12T00:21:44;168.65;;;47.03;;
18520;SDS011;9390;51.244;6.982;2023-02-12T00:24:15;184.20;;;46.92;;
18520;SDS011;9390;51.244;6.982;2023-02-12T00:26:48;177.55;;;47.35;;
18520;SDS011;9390;51.244;6.982;2023-02-12T00:29:20;165.40;;;46.72;;
18520;SDS011;9390;51.244;6.982;2023-02-12T00:31:51;166.98;;;48.80;;
18520;SDS011;9390;51.244;6.982;2023-02-12T00:34:22;174.10;;;46.60;;
18520;SDS011;9390;51.244;6.982;2023-02-12T00:36:54;167.55;;;48.03;;
18520;SDS011;9390;51.244;6.982;2023-02-12T00:39:25;168.55;;;44.28;;
18520;SDS011;9390;51.244;6.982;2023-02-12T00:41:58;163.55;;;46.42;;
18520;SDS011;9390;51.244;6.982;2023-02-12T00:44:29;176.45;;;45.03;;
18520;SDS011;9390;51.244;6.982;2023-02-12T00:47:01;169.07;;;46.78;;
18520;SDS011;9390;51.244;6.982;2023-02-12T00:49:32;174.23;;;45.83;;
18520;SDS011;9390;51.244;6.982;2023-02-12T00:52:04;159.88;;;45.30;;
18520;SDS011;9390;51.244;6.982;2023-02-12T00:54:35;165.80;;;45.42;;
18520;SDS011;9390;51.244;6.982;2023-02-12T00:57:08;162.68;;;47.15;;
18520;SDS011;9390;51.244;6.982;2023-02-12T00:59:39;183.35;;;44.55;;
18520;SDS011;9390;51.244;6.982;2023-02-12T01:02:11;171.73;;;46.60;;
18520;SDS011;9390;51.244;6.982;2023-02-12T01:04:43;164.52;;;46.95;;
18520;SDS011;9390;51.244;6.982;2023-02-12T01:07:14;162.02;;;46.08;;
18520;SDS011;9390;51.244;6.982;2023-02-12T01:09:46;171.27;;;46.05;;
18520;SDS011;9390;51.244;6.982;2023-02-12T01:12:19;165.60;;;45.53;;
18520;SDS011;9390;51.244;6.982;2023-02-12T01:14:50;185.43;;;47.67;;
18520;SDS011;9390;51.244;6.982;2023-02-12T01:17:21;155.57;;;44.08;;
18520;SDS011;9390;51.244;6.982;2023-02-12T01:19:55;172.15;;;45.90;;
18520;SDS011;9390;51.244;6.982;2023-02-12T01:22:27;177.60;;;45.25;;
18520;SDS011;9390;51.244;6.982;2023-02-12T01:24:58;189.35;;;42.70;;
18520;SDS011;9390;51.244;6.982;2023-02-12T01:27:31;154.15;;;43.53;;
18520;SDS011;9390;51.244;6.982;2023-02-12T01:30:03;158.70;;;43.55;;
18520;SDS011;9390;51.244;6.982;2023-02-12T01:32:34;164.57;;;46.70;;
18520;SDS011;9390;51.244;6.982;2023-02-12T01:35:06;179.77;;;47.30;;
18520;SDS011;9390;51.244;6.982;2023-02-12T01:40:11;153.57;;;42.08;;
18520;SDS011;9390;51.244;6.982;2023-02-12T01:42:49;155.93;;;43.47;;
18520;SDS011;9390;51.244;6.982;2023-02-12T01:45:37;162.63;;;42.55;;
18520;SDS011;9390;51.244;6.982;2023-02-12T01:48:17;158.90;;;44.58;;
18520;SDS011;9390;51.244;6.982;2023-02-12T01:50:51;156.07;;;43.35;;
18520;SDS011;9390;51.244;6.982;2023-02-12T01:53:23;162.18;;;45.05;;
18520;SDS011;9390;51.244;6.982;2023-02-12T01:55:59;172.75;;;47.60;;
18520;SDS011;9390;51.244;6.982;2023-02-12T01:58:35;181.40;;;45.85;;
18520;SDS011;9390;51.244;6.982;2023-02-12T02:01:09;175.35;;;48.53;;
18520;SDS011;9390;51.244;6.982;2023-02-12T02:03:43;188.25;;;49.83;;
18520;SDS011;9390;51.244;6.982;2023-02-12T02:06:16;168.60;;;48.40;;
18520;SDS011;9390;51.244;6.982;2023-02-12T02:08:50;176.50;;;48.00;;
18520;SDS011;9390;51.244;6.982;2023-02-12T02:11:21;171.35;;;46.03;;
18520;SDS011;9390;51.244;6.982;2023-02-12T02:14:12;160.10;;;44.60;;
18520;SDS011;9390;51.244;6.982;2023-02-12T02:23:33;176.13;;;46.35;;
18520;SDS011;9390;51.244;6.982;2023-02-12T02:29:23;166.82;;;44.08;;
18520;SDS011;9390;51.244;6.982;2023-02-12T02:32:05;163.13;;;44.47;;
18520;SDS011;9390;51.244;6.982;2023-02-12T02:34:39;157.43;;;43.88;;
18520;SDS011;9390;51.244;6.982;2023-02-12T02:37:16;179.27;;;46.40;;
18520;SDS011;9390;51.244;6.982;2023-02-12T02:39:49;174.30;;;45.83;;
18520;SDS011;9390;51.244;6.982;2023-02-12T02:42:22;170.20;;;44.28;;
18520;SDS011;9390;51.244;6.982;2023-02-12T02:44:58;186.73;;;45.03;;
18520;SDS011;9390;51.244;6.982;2023-02-12T02:47:36;163.13;;;42.85;;
18520;SDS011;9390;51.244;6.982;2023-02-12T02:50:11;160.45;;;43.47;;
18520;SDS011;9390;51.244;6.982;2023-02-12T02:52:44;174.45;;;45.45;;
18520;SDS011;9390;51.244;6.982;2023-02-12T02:55:18;192.55;;;46.42;;
18520;SDS011;9390;51.244;6.982;2023-02-12T03:00:23;179.57;;;44.45;;
18520;SDS011;9390;51.244;6.982;2023-02-12T03:02:59;179.90;;;44.63;;
18520;SDS011;9390;51.244;6.982;2023-02-12T03:05:34;191.23;;;46.63;;
18520;SDS011;9390;51.244;6.982;2023-02-12T03:08:09;190.10;;;47.70;;
18520;SDS011;9390;51.244;6.982;2023-02-12T03:10:43;175.05;;;47.45;;
18520;SDS011;9390;51.244;6.982;2023-02-12T03:13:17;199.18;;;48.25;;
18520;SDS011;9390;51.244;6.982;2023-02-12T03:15:54;181.65;;;46.53;;
18520;SDS011;9390;51.244;6.982;2023-02-12T03:18:32;162.30;;;44.97;;
18520;SDS011;9390;51.244;6.982;2023-02-12T03:21:06;191.00;;;45.17;;
18520;SDS011;9390;51.244;6.982;2023-02-12T03:23:41;170.63;;;45.22;;
18520;SDS011;9390;51.244;6.982;2023-02-12T03:26:17;185.43;;;46.92;;
18520;SDS011;9390;51.244;6.982;2023-02-12T03:28:51;178.50;;;46.70;;
18520;SDS011;9390;51.244;6.982;2023-02-12T03:31:24;198.50;;;48.10;;
18520;SDS011;9390;51.244;6.982;2023-02-12T03:34:04;176.88;;;45.22;;
18520;SDS011;9390;51.244;6.982;2023-02-12T03:36:41;190.68;;;46.95;;
18520;SDS011;9390;51.244;6.982;2023-02-12T03:39:16;191.90;;;47.95;;
18520;SDS011;9390;51.244;6.982;2023-02-12T03:41:53;194.23;;;47.58;;
18520;SDS011;9390;51.244;6.982;2023-02-12T03:44:32;195.38;;;48.42;;
18520;SDS011;9390;51.244;6.982;2023-02-12T03:47:15;180.55;;;47.38;;
18520;SDS011;9390;51.244;6.982;2023-02-12T03:49:53;187.82;;;47.47;;
18520;SDS011;9390;51.244;6.982;2023-02-12T03:52:28;189.73;;;46.22;;
18520;SDS011;9390;51.244;6.982;2023-02-12T03:55:00;163.73;;;44.25;;
18520;SDS011;9390;51.244;6.982;2023-02-12T03:57:33;182.07;;;47.10;;
18520;SDS011;9390;51.244;6.982;2023-02-12T04:00:09;190.07;;;47.78;;
18520;SDS011;9390;51.244;6.982;2023-02-12T04:02:45;170.48;;;45.58;;
18520;SDS011;9390;51.244;6.982;2023-02-12T04:05:20;164.15;;;46.30;;
18520;SDS011;9390;51.244;6.982;2023-02-12T04:07:53;198.95;;;48.53;;
18520;SDS011;9390;51.244;6.982;2023-02-12T04:12:59;179.63;;;47.15;;
18520;SDS011;9390;51.244;6.982;2023-02-12T04:15:45;190.95;;;45.35;;
18520;SDS011;9390;51.244;6.982;2023-02-12T04:18:24;192.77;;;46.72;;
18520;SDS011;9390;51.244;6.982;2023-02-12T04:21:05;205.60;;;48.95;;
18520;SDS011;9390;51.244;6.982;2023-02-12T04:23:43;215.60;;;48.05;;
18520;SDS011;9390;51.244;6.982;2023-02-12T04:26:20;177.23;;;45.95;;
18520;SDS011;9390;51.244;6.982;2023-02-12T04:29:03;217.20;;;49.30;;
18520;SDS011;9390;51.244;6.982;2023-02-12T04:31:39;193.77;;;47.35;;
18520;SDS011;9390;51.244;6.982;2023-02-12T04:34:17;183.77;;;47.42;;
18520;SDS011;9390;51.244;6.982;2023-02-12T04:36:53;199.35;;;46.92;;
18520;SDS011;9390;51.244;6.982;2023-02-12T04:39:27;191.15;;;47.38;;
18520;SDS011;9390;51.244;6.982;2023-02-12T04:42:00;200.85;;;46.53;;
18520;SDS011;9390;51.244;6.982;2023-02-12T04:44:33;211.65;;;46.15;;
18520;SDS011;9390;51.244;6.982;2023-02-12T04:47:08;188.55;;;45.60;;
18520;SDS011;9390;51.244;6.982;2023-02-12T04:49:40;188.25;;;46.90;;
18520;SDS011;9390;51.244;6.982;2023-02-12T04:52:13;195.25;;;48.05;;
18520;SDS011;9390;51.244;6.982;2023-02-12T04:54:44;188.48;;;46.85;;
18520;SDS011;9390;51.244;6.982;2023-02-12T04:57:16;198.75;;;47.10;;
18520;SDS011;9390;51.244;6.982;2023-02-12T04:59:47;217.38;;;46.33;;
18520;SDS011;9390;51.244;6.982;2023-02-12T05:02:18;191.95;;;48.15;;
18520;SDS011;9390;51.244;6.982;2023-02-12T05:04:50;189.07;;;47.15;;
18520;SDS011;9390;51.244;6.982;2023-02-12T05:07:23;173.13;;;44.65;;
18520;SDS011;9390;51.244;6.982;2023-02-12T05:09:54;180.45;;;46.72;;
18520;SDS011;9390;51.244;6.982;2023-02-12T05:12:25;198.77;;;47.65;;
18520;SDS011;9390;51.244;6.982;2023-02-12T05:14:57;179.63;;;46.05;;
18520;SDS011;9390;51.244;6.982;2023-02-12T05:17:28;196.05;;;47.58;;
18520;SDS011;9390;51.244;6.982;2023-02-12T05:19:59;199.40;;;46.22;;
18520;SDS011;9390;51.244;6.982;2023-02-12T05:22:33;190.98;;;49.38;;
18520;SDS011;9390;51.244;6.982;2023-02-12T05:27:35;193.13;;;48.70;;
18520;SDS011;9390;51.244;6.982;2023-02-12T05:30:07;198.93;;;49.13;;
18520;SDS011;9390;51.244;6.982;2023-02-12T05:32:39;203.10;;;47.97;;
18520;SDS011;9390;51.244;6.982;2023-02-12T05:35:10;184.95;;;46.13;;
18520;SDS011;9390;51.244;6.982;2023-02-12T05:37:43;213.32;;;48.03;;
18520;SDS011;9390;51.244;6.982;2023-02-12T05:40:15;194.70;;;49.03;;
18520;SDS011;9390;51.244;6.982;2023-02-12T05:42:46;201.30;;;48.42;;
18520;SDS011;9390;51.244;6.982;2023-02-12T05:45:18;209.88;;;50.30;;
18520;SDS011;9390;51.244;6.982;2023-02-12T05:47:49;209.63;;;49.65;;
18520;SDS011;9390;51.244;6.982;2023-02-12T05:50:21;194.27;;;50.53;;
18520;SDS011;9390;51.244;6.982;2023-02-12T05:52:53;199.18;;;48.85;;
18520;SDS011;9390;51.244;6.982;2023-02-12T05:55:25;233.48;;;52.28;;
18520;SDS011;9390;51.244;6.982;2023-02-12T05:57:56;215.25;;;50.97;;
18520;SDS011;9390;51.244;6.982;2023-02-12T06:00:28;204.88;;;50.88;;
18520;SDS011;9390;51.244;6.982;2023-02-12T06:02:59;193.57;;;48.08;;
18520;SDS011;9390;51.244;6.982;2023-02-12T06:05:30;207.10;;;49.70;;
18520;SDS011;9390;51.244;6.982;2023-02-12T06:08:03;190.77;;;47.33;;
18520;SDS011;9390;51.244;6.982;2023-02-12T06:10:35;196.10;;;49.28;;
18520;SDS011;9390;51.244;6.982;2023-02-12T06:13:07;199.48;;;47.72;;
18520;SDS011;9390;51.244;6.982;2023-02-12T06:15:38;189.27;;;46.38;;
18520;SDS011;9390;51.244;6.982;2023-02-12T06:18:09;206.18;;;46.72;;
18520;SDS011;9390;51.244;6.982;2023-02-12T06:20:41;217.82;;;50.72;;
18520;SDS011;9390;51.244;6.982;2023-02-12T06:23:13;194.57;;;47.85;;
18520;SDS011;9390;51.244;6.982;2023-02-12T06:25:45;216.23;;;46.88;;
18520;SDS011;9390;51.244;6.982;2023-02-12T06:28:16;211.43;;;46.38;;
18520;SDS011;9390;51.244;6.982;2023-02-12T06:30:48;210.35;;;49.08;;
18520;SDS011;9390;51.244;6.982;2023-02-12T06:33:19;205.25;;;49.58;;
18520;SDS011;9390;51.244;6.982;2023-02-12T06:35:50;192.90;;;47.20;;
18520;SDS011;9390;51.244;6.982;2023-02-12T06:38:23;200.55;;;49.28;;
18520;SDS011;9390;51.244;6.982;2023-02-12T06:40:55;201.70;;;49.38;;
18520;SDS011;9390;51.244;6.982;2023-02-12T06:43:26;219.93;;;48.13;;
18520;SDS011;9390;51.244;6.982;2023-02-12T06:45:59;204.20;;;51.28;;
18520;SDS011;9390;51.244;6.982;2023-02-12T06:48:31;187.45;;;48.42;;
18520;SDS011;9390;51.244;6.982;2023-02-12T06:51:03;179.20;;;48.58;;
18520;SDS011;9390;51.244;6.982;2023-02-12T06:53:37;187.27;;;47.70;;
18520;SDS011;9390;51.244;6.982;2023-02-12T06:56:10;210.52;;;49.03;;
18520;SDS011;9390;51.244;6.982;2023-02-12T06:58:45;198.95;;;47.63;;
18520;SDS011;9390;51.244;6.982;2023-02-12T07:01:18;192.98;;;49.13;;
18520;SDS011;9390;51.244;6.982;2023-02-12T07:03:52;195.75;;;48.83;;
18520;SDS011;9390;51.244;6.982;2023-02-12T07:06:24;204.23;;;48.55;;
18520;SDS011;9390;51.244;6.982;2023-02-12T07:08:57;208.80;;;54.87;;
18520;SDS011;9390;51.244;6.982;2023-02-12T07:11:30;204.23;;;51.38;;
18520;SDS011;9390;51.244;6.982;2023-02-12T07:14:02;208.30;;;50.88;;
18520;SDS011;9390;51.244;6.982;2023-02-12T07:16:33;219.90;;;51.53;;
18520;SDS011;9390;51.244;6.982;2023-02-12T07:19:05;184.82;;;47.75;;
18520;SDS011;9390;51.244;6.982;2023-02-12T07:21:36;196.50;;;48.50;;
18520;SDS011;9390;51.244;6.982;2023-02-12T07:24:10;189.02;;;46.60;;
18520;SDS011;9390;51.244;6.982;2023-02-12T07:26:41;194.57;;;47.80;;
18520;SDS011;9390;51.244;6.982;2023-02-12T07:29:13;201.85;;;47.10;;
18520;SDS011;9390;51.244;6.982;2023-02-12T07:31:44;185.98;;;49.72;;
18520;SDS011;9390;51.244;6.982;2023-02-12T07:34:16;197.07;;;50.35;;
18520;SDS011;9390;51.244;6.982;2023-02-12T07:36:47;189.13;;;48.47;;
18520;SDS011;9390;51.244;6.982;2023-02-12T07:39:20;186.45;;;48.85;;
18520;SDS011;9390;51.244;6.982;2023-02-12T07:44:23;179.75;;;46.97;;
18520;SDS011;9390;51.244;6.982;2023-02-12T07:46:54;175.23;;;46.97;;
18520;SDS011;9390;51.244;6.982;2023-02-12T07:49:26;173.77;;;44.58;;
18520;SDS011;9390;51.244;6.982;2023-02-12T07:51:57;175.32;;;46.38;;
18520;SDS011;9390;51.244;6.982;2023-02-12T07:54:30;192.05;;;46.20;;
18520;SDS011;9390;51.244;6.982;2023-02-12T07:57:01;175.93;;;48.67;;
18520;SDS011;9390;51.244;6.982;2023-02-12T07:59:33;185.07;;;47.60;;
18520;SDS011;9390;51.244;6.982;2023-02-12T08:02:05;182.13;;;48.40;;
18520;SDS011;9390;51.244;6.982;2023-02-12T08:04:36;176.05;;;48.47;;
18520;SDS011;9390;51.244;6.982;2023-02-12T08:07:07;168.52;;;47.95;;
18520;SDS011;9390;51.244;6.982;2023-02-12T08:09:40;175.70;;;48.55;;
18520;SDS011;9390;51.244;6.982;2023-02-12T08:12:12;182.60;;;50.20;;
18520;SDS011;9390;51.244;6.982;2023-02-12T08:14:43;179.98;;;50.15;;
18520;SDS011;9390;51.244;6.982;2023-02-12T08:17:15;175.45;;;48.92;;
18520;SDS011;9390;51.244;6.982;2023-02-12T08:19:46;167.93;;;48.08;;
18520;SDS011;9390;51.244;6.982;2023-02-12T08:22:17;165.02;;;48.40;;
18520;SDS011;9390;51.244;6.982;2023-02-12T08:24:50;175.13;;;48.38;;
18520;SDS011;9390;51.244;6.982;2023-02-12T08:27:21;150.60;;;46.95;;
18520;SDS011;9390;51.244;6.982;2023-02-12T08:29:53;161.02;;;46.25;;
18520;SDS011;9390;51.244;6.982;2023-02-12T08:32:24;143.45;;;43.80;;
18520;SDS011;9390;51.244;6.982;2023-02-12T08:34:55;141.63;;;43.40;;
18520;SDS011;9390;51.244;6.982;2023-02-12T08:37:27;137.20;;;43.60;;
18520;SDS011;9390;51.244;6.982;2023-02-12T08:40:00;139.98;;;41.55;;
18520;SDS011;9390;51.244;6.982;2023-02-12T08:42:31;137.60;;;41.90;;
18520;SDS011;9390;51.244;6.982;2023-02-12T08:45:03;145.05;;;43.67;;
18520;SDS011;9390;51.244;6.982;2023-02-12T08:47:34;143.80;;;42.67;;
18520;SDS011;9390;51.244;6.982;2023-02-12T08:50:06;142.80;;;44.35;;
18520;SDS011;9390;51.244;6.982;2023-02-12T08:52:38;143.65;;;45.55;;
18520;SDS011;9390;51.244;6.982;2023-02-12T08:55:11;140.63;;;45.53;;
18520;SDS011;9390;51.244;6.982;2023-02-12T08:57:42;143.63;;;44.85;;
18520;SDS011;9390;51.244;6.982;2023-02-12T09:00:14;136.82;;;44.22;;
18520;SDS011;9390;51.244;6.982;2023-02-12T09:02:47;138.07;;;43.53;;
18520;SDS011;9390;51.244;6.982;2023-02-12T09:07:51;128.85;;;41.65;;
18520;SDS011;9390;51.244;6.982;2023-02-12T09:10:25;125.63;;;42.75;;
18520;SDS011;9390;51.244;6.982;2023-02-12T09:12:56;122.57;;;41.85;;
18520;SDS011;9390;51.244;6.982;2023-02-12T09:15:28;119.93;;;40.53;;
18520;SDS011;9390;51.244;6.982;2023-02-12T09:17:59;117.15;;;41.97;;
18520;SDS011;9390;51.244;6.982;2023-02-12T09:20:33;122.95;;;40.70;;
18520;SDS011;9390;51.244;6.982;2023-02-12T09:23:07;117.93;;;40.80;;
18520;SDS011;9390;51.244;6.982;2023-02-12T09:25:41;111.88;;;41.20;;
18520;SDS011;9390;51.244;6.982;2023-02-12T09:28:13;118.25;;;41.92;;
18520;SDS011;9390;51.244;6.982;2023-02-12T09:30:44;102.38;;;38.33;;
18520;SDS011;9390;51.244;6.982;2023-02-12T09:33:16;106.00;;;36.88;;
18520;SDS011;9390;51.244;6.982;2023-02-12T09:35:48;103.65;;;36.92;;
18520;SDS011;9390;51.244;6.982;2023-02-12T09:38:19;88.63;;;36.53;;
18520;SDS011;9390;51.244;6.982;2023-02-12T09:40:56;98.47;;;34.90;;
18520;SDS011;9390;51.244;6.982;2023-02-12T09:43:39;86.55;;;34.35;;
18520;SDS011;9390;51.244;6.982;2023-02-12T09:46:15;85.97;;;33.38;;
18520;SDS011;9390;51.244;6.982;2023-02-12T09:48:52;83.53;;;33.22;;
18520;SDS011;9390;51.244;6.982;2023-02-12T09:51:26;86.57;;;32.42;;
18520;SDS011;9390;51.244;6.982;2023-02-12T09:54:00;81.50;;;32.42;;
18520;SDS011;9390;51.244;6.982;2023-02-12T09:56:35;78.35;;;31.35;;
18520;SDS011;9390;51.244;6.982;2023-02-12T09:59:10;67.05;;;28.20;;
18520;SDS011;9390;51.244;6.982;2023-02-12T10:01:44;65.95;;;28.05;;
18520;SDS011;9390;51.244;6.982;2023-02-12T10:04:16;65.22;;;28.27;;
18520;SDS011;9390;51.244;6.982;2023-02-12T10:06:50;67.38;;;29.33;;
18520;SDS011;9390;51.244;6.982;2023-02-12T10:09:39;55.47;;;25.42;;
18520;SDS011;9390;51.244;6.982;2023-02-12T10:12:23;56.35;;;27.88;;
18520;SDS011;9390;51.244;6.982;2023-02-12T10:15:08;54.65;;;25.48;;
18520;SDS011;9390;51.244;6.982;2023-02-12T10:17:46;58.42;;;25.70;;
18520;SDS011;9390;51.244;6.982;2023-02-12T10:20:30;61.38;;;26.25;;
18520;SDS011;9390;51.244;6.982;2023-02-12T10:23:11;59.10;;;26.38;;
18520;SDS011;9390;51.244;6.982;2023-02-12T10:25:52;57.28;;;25.17;;
18520;SDS011;9390;51.244;6.982;2023-02-12T10:28:27;55.78;;;25.58;;
18520;SDS011;9390;51.244;6.982;2023-02-12T10:31:01;53.53;;;24.40;;
18520;SDS011;9390;51.244;6.982;2023-02-12T10:33:36;61.33;;;26.33;;
18520;SDS011;9390;51.244;6.982;2023-02-12T10:36:12;60.65;;;28.35;;
18520;SDS011;9390;51.244;6.982;2023-02-12T10:38:49;60.85;;;26.95;;
18520;SDS011;9390;51.244;6.982;2023-02-12T10:41:23;59.17;;;28.10;;
18520;SDS011;9390;51.244;6.982;2023-02-12T10:44:01;54.05;;;24.67;;
18520;SDS011;9390;51.244;6.982;2023-02-12T10:46:33;58.65;;;26.95;;
18520;SDS011;9390;51.244;6.982;2023-02-12T10:49:04;54.53;;;25.70;;
18520;SDS011;9390;51.244;6.982;2023-02-12T10:51:42;50.25;;;24.70;;
18520;SDS011;9390;51.244;6.982;2023-02-12T10:54:32;54.55;;;26.23;;
18520;SDS011;9390;51.244;6.982;2023-02-12T10:57:07;44.20;;;22.30;;
18520;SDS011;9390;51.244;6.982;2023-02-12T10:59:44;46.22;;;20.83;;
18520;SDS011;9390;51.244;6.982;2023-02-12T11:02:26;41.17;;;20.45;;
18520;SDS011;9390;51.244;6.982;2023-02-12T11:04:59;34.10;;;17.40;;
18520;SDS011;9390;51.244;6.982;2023-02-12T11:10:26;48.13;;;22.23;;
18520;SDS011;9390;51.244;6.982;2023-02-12T11:13:00;44.40;;;21.13;;
18520;SDS011;9390;51.244;6.982;2023-02-12T11:15:36;47.17;;;22.83;;
18520;SDS011;9390;51.244;6.982;2023-02-12T11:18:19;42.55;;;20.42;;
18520;SDS011;9390;51.244;6.982;2023-02-12T11:20:55;48.00;;;20.50;;
18520;SDS011;9390;51.244;6.982;2023-02-12T11:23:30;45.72;;;22.02;;
18520;SDS011;9390;51.244;6.982;2023-02-12T11:26:03;47.08;;;21.27;;
18520;SDS011;9390;51.244;6.982;2023-02-12T11:28:35;43.58;;;21.00;;
18520;SDS011;9390;51.244;6.982;2023-02-12T11:31:20;49.25;;;23.60;;
18520;SDS011;9390;51.244;6.982;2023-02-12T11:34:06;46.50;;;20.92;;
18520;SDS011;9390;51.244;6.982;2023-02-12T11:36:40;39.58;;;18.67;;
18520;SDS011;9390;51.244;6.982;2023-02-12T11:39:16;41.90;;;21.13;;
18520;SDS011;9390;51.244;6.982;2023-02-12T11:41:50;44.35;;;20.92;;
18520;SDS011;9390;51.244;6.982;2023-02-12T11:44:24;44.67;;;21.40;;
18520;SDS011;9390;51.244;6.982;2023-02-12T11:46:58;52.55;;;24.00;;
18520;SDS011;9390;51.244;6.982;2023-02-12T11:49:33;49.00;;;24.15;;
18520;SDS011;9390;51.244;6.982;2023-02-12T11:52:15;50.88;;;24.15;;
18520;SDS011;9390;51.244;6.982;2023-02-12T11:54:49;51.42;;;24.25;;
18520;SDS011;9390;51.244;6.982;2023-02-12T11:57:34;48.92;;;23.15;;
18520;SDS011;9390;51.244;6.982;2023-02-12T12:00:10;46.90;;;22.05;;
18520;SDS011;9390;51.244;6.982;2023-02-12T12:02:46;49.22;;;23.05;;
18520;SDS011;9390;51.244;6.982;2023-02-12T12:05:19;49.78;;;21.98;;
18520;SDS011;9390;51.244;6.982;2023-02-12T12:07:58;48.20;;;21.83;;
18520;SDS011;9390;51.244;6.982;2023-02-12T12:10:33;43.83;;;22.30;;
18520;SDS011;9390;51.244;6.982;2023-02-12T12:13:09;45.33;;;21.85;;
18520;SDS011;9390;51.244;6.982;2023-02-12T12:15:43;45.85;;;23.38;;
18520;SDS011;9390;51.244;6.982;2023-02-12T12:18:38;44.38;;;20.48;;
18520;SDS011;9390;51.244;6.982;2023-02-12T12:21:33;40.38;;;21.63;;
18520;SDS011;9390;51.244;6.982;2023-02-12T12:24:08;51.72;;;23.00;;
18520;SDS011;9390;51.244;6.982;2023-02-12T12:26:43;48.13;;;22.40;;
18520;SDS011;9390;51.244;6.982;2023-02-12T12:29:17;45.13;;;22.33;;
18520;SDS011;9390;51.244;6.982;2023-02-12T12:31:52;44.25;;;22.55;;
18520;SDS011;9390;51.244;6.982;2023-02-12T12:34:27;47.10;;;21.83;;
18520;SDS011;9390;51.244;6.982;2023-02-12T12:37:03;50.33;;;23.50;;
18520;SDS011;9390;51.244;6.982;2023-02-12T12:39:42;44.00;;;22.23;;
18520;SDS011;9390;51.244;6.982;2023-02-12T12:42:32;50.80;;;23.77;;
18520;SDS011;9390;51.244;6.982;2023-02-12T12:45:45;43.53;;;21.98;;
18520;SDS011;9390;51.244;6.982;2023-02-12T12:48:30;47.20;;;22.10;;
18520;SDS011;9390;51.244;6.982;2023-02-12T12:51:23;51.33;;;23.10;;
18520;SDS011;9390;51.244;6.982;2023-02-12T12:54:10;44.78;;;21.30;;
18520;SDS011;9390;51.244;6.982;2023-02-12T12:56:56;48.92;;;22.73;;
18520;SDS011;9390;51.244;6.982;2023-02-12T12:59:44;49.38;;;23.80;;
18520;SDS011;9390;51.244;6.982;2023-02-12T13:02:29;52.40;;;24.65;;
18520;SDS011;9390;51.244;6.982;2023-02-12T13:05:17;62.35;;;26.13;;
18520;SDS011;9390;51.244;6.982;2023-02-12T13:07:56;51.25;;;23.38;;
18520;SDS011;9390;51.244;6.982;2023-02-12T13:10:32;51.97;;;25.08;;
18520;SDS011;9390;51.244;6.982;2023-02-12T13:13:08;52.58;;;23.17;;
18520;SDS011;9390;51.244;6.982;2023-02-12T13:15:47;50.95;;;23.08;;
18520;SDS011;9390;51.244;6.982;2023-02-12T13:18:24;49.85;;;22.83;;
18520;SDS011;9390;51.244;6.982;2023-02-12T13:21:03;48.90;;;23.65;;
18520;SDS011;9390;51.244;6.982;2023-02-12T13:23:40;47.45;;;22.63;;
18520;SDS011;9390;51.244;6.982;2023-02-12T13:26:16;51.80;;;23.40;;
18520;SDS011;9390;51.244;6.982;2023-02-12T13:28:50;52.80;;;24.88;;
18520;SDS011;9390;51.244;6.982;2023-02-12T13:31:23;54.92;;;24.42;;
18520;SDS011;9390;51.244;6.982;2023-02-12T13:33:57;53.85;;;23.58;;
18520;SDS011;9390;51.244;6.982;2023-02-12T13:39:07;47.47;;;22.42;;
18520;SDS011;9390;51.244;6.982;2023-02-12T13:41:44;52.63;;;23.02;;
18520;SDS011;9390;51.244;6.982;2023-02-12T13:44:19;50.72;;;23.50;;
18520;SDS011;9390;51.244;6.982;2023-02-12T13:47:02;47.58;;;23.63;;
18520;SDS011;9390;51.244;6.982;2023-02-12T13:49:40;50.45;;;24.00;;
18520;SDS011;9390;51.244;6.982;2023-02-12T13:52:17;53.75;;;23.85;;
18520;SDS011;9390;51.244;6.982;2023-02-12T13:54:56;53.97;;;25.10;;
18520;SDS011;9390;51.244;6.982;2023-02-12T13:57:32;56.33;;;25.08;;
18520;SDS011;9390;51.244;6.982;2023-02-12T14:00:04;48.67;;;22.98;;
18520;SDS011;9390;51.244;6.982;2023-02-12T14:02:42;58.28;;;23.77;;
18520;SDS011;9390;51.244;6.982;2023-02-12T14:05:19;55.65;;;24.77;;
18520;SDS011;9390;51.244;6.982;2023-02-12T14:07:54;53.28;;;22.83;;
18520;SDS011;9390;51.244;6.982;2023-02-12T14:10:29;52.70;;;24.75;;
18520;SDS011;9390;51.244;6.982;2023-02-12T14:13:14;54.53;;;23.35;;
18520;SDS011;9390;51.244;6.982;2023-02-12T14:15:48;53.33;;;25.95;;
18520;SDS011;9390;51.244;6.982;2023-02-12T14:18:25;54.50;;;24.00;;
18520;SDS011;9390;51.244;6.982;2023-02-12T14:27:26;54.45;;;25.02;;
18520;SDS011;9390;51.244;6.982;2023-02-12T14:30:01;56.63;;;25.02;;
18520;SDS011;9390;51.244;6.982;2023-02-12T14:32:58;51.80;;;23.05;;
18520;SDS011;9390;51.244;6.982;2023-02-12T14:35:40;55.42;;;23.98;;
18520;SDS011;9390;51.244;6.982;2023-02-12T14:41:27;55.83;;;23.35;;
18520;SDS011;9390;51.244;6.982;2023-02-12T14:47:48;59.70;;;23.48;;
18520;SDS011;9390;51.244;6.982;2023-02-12T14:50:30;54.03;;;23.90;;
18520;SDS011;9390;51.244;6.982;2023-02-12T14:53:22;59.38;;;24.85;;
18520;SDS011;9390;51.244;6.982;2023-02-12T14:55:56;51.33;;;22.67;;
18520;SDS011;9390;51.244;6.982;2023-02-12T14:58:28;50.13;;;22.00;;
18520;SDS011;9390;51.244;6.982;2023-02-12T15:01:02;49.10;;;22.27;;
18520;SDS011;9390;51.244;6.982;2023-02-12T15:06:07;56.10;;;22.85;;
18520;SDS011;9390;51.244;6.982;2023-02-12T15:08:43;47.40;;;22.48;;
18520;SDS011;9390;51.244;6.982;2023-02-12T15:11:19;50.40;;;22.05;;
18520;SDS011;9390;51.244;6.982;2023-02-12T15:13:54;43.90;;;21.63;;
18520;SDS011;9390;51.244;6.982;2023-02-12T15:16:31;47.97;;;21.15;;
18520;SDS011;9390;51.244;6.982;2023-02-12T15:19:06;46.92;;;22.15;;
18520;SDS011;9390;51.244;6.982;2023-02-12T15:21:46;48.35;;;21.95;;
18520;SDS011;9390;51.244;6.982;2023-02-12T15:24:20;52.20;;;23.08;;
18520;SDS011;9390;51.244;6.982;2023-02-12T15:26:52;48.53;;;21.58;;
18520;SDS011;9390;51.244;6.982;2023-02-12T15:31:59;44.33;;;22.05;;
18520;SDS011;9390;51.244;6.982;2023-02-12T15:34:33;44.08;;;22.05;;
18520;SDS011;9390;51.244;6.982;2023-02-12T15:37:07;54.03;;;22.88;;
18520;SDS011;9390;51.244;6.982;2023-02-12T15:39:42;50.63;;;20.83;;
18520;SDS011;9390;51.244;6.982;2023-02-12T15:42:25;47.90;;;22.20;;
18520;SDS011;9390;51.244;6.982;2023-02-12T15:45:06;45.58;;;22.90;;
18520;SDS011;9390;51.244;6.982;2023-02-12T15:47:56;53.55;;;22.60;;
18520;SDS011;9390;51.244;6.982;2023-02-12T15:50:30;50.35;;;22.40;;
18520;SDS011;9390;51.244;6.982;2023-02-12T15:53:02;50.40;;;23.55;;
18520;SDS011;9390;51.244;6.982;2023-02-12T15:55:34;57.17;;;24.95;;
18520;SDS011;9390;51.244;6.982;2023-02-12T15:58:13;53.08;;;22.55;;
18520;SDS011;9390;51.244;6.982;2023-02-12T16:00:49;53.63;;;22.73;;